Pagrindinis puslapis
METAR-TAF:

METAR-TAF

Oro uostai :

Ajakučas, Peru

platuma: 13-08S, ilguma: 074-13W, Aukštis: 2740 m

Dabartinis oras

Ataskaita buvo paskelbta 3 valandos ir 17 minutes, ne 19:00 UTC
Vėjas 8 kt iš Šiaurės Rytų, svyruoja nuo Šiaurės ir Rytų/Pietryčių
Temperatūra 25°C
Drėgmė 26%
Slėgis 1023 hPa
Matomumas 10 km arba daugiau
Mažai debesys ne aukštis 4000 ft, aukštai iškilę kamuoliniai debesys.
Išsisklaidę debesys ne aukštis 9000 ft
Liūtis kaimynystėje

METAR: SPHO 281900Z 05008KT 350V110 9999 VCSH FEW040TCU SCT090 25/04 Q1023 RMK PP000

Laikas: 17:17 (22:17 UTC)

Prognozė

Ataskaita buvo paskelbta 5 valandos ir 17 minutes, ne 17:00 UTC
Prognozė galioja nuo 28 metu 18 UTC su 29 metu 18 UTC
Vėjas 10 kt iš Šiaurės
Matomumas 10 km arba daugiau
Išsisklaidę debesys ne aukštis 5000 ft
Su prošvaistėmis ne aukštis 10000 ft
Tapsmas
nuo 29 metu 00 UTC su 29 metu 02 UTC
Vėjas kt iš Šiaurės

TAF: SPHO 281700Z 2818/2918 36010KT 9999 SCT050 BKN100 TX25/2819Z TN12/2911Z BECMG 2900/2902 00000KT

Orai ataskaitas ir orų prognozės (METAR, TAF).

turimą stotys yra geltonos ir raudonos taškus žemėlapyje.

Perkelti pele per norėdami pamatyti stoties vardą.

Tada spustelėkite, norėdami matyti oro stebėjimo ir prognozės.

Norėdami pakeisti žemėlapį: spustelėkite ant žalios mygtukų su juodo kryžiaus žemyn,; žalią mygtuką su brūkšneliu, jei norite nutolinti; arba žalių rodyklių gretimoms žemėlapius.


METAR-TAF: